CRL weather

Brussels South Charleroi Airport
Brussels, Hainaut, Belgium

Public forecast

Using degrees Celsius for public forecast. Weather courtesy of forecast.io.

Current aviation weather report (METAR) for Brussels South Charleroi Airport

Retrieved 2020/04/06 08:20 UTC (34 minutes ago):

EBCI 060820Z 20013KT CAVOK 15/01 Q1018 NOSIG

Aviation forecast (TAF) for Brussels South Charleroi Airport

Retrieved 2020/04/06 06:27 UTC (2 hours ago):

TAF EBCI 060510Z 0606/0712 20011KT CAVOK BECMG 0616/0618 26007KT SCT006 BKN011 BECMG 0621/0624 2000 BR BKN004 PROB40 TEMPO 0702/0707 0400 FG BKN001 BECMG 0707/0710 9999 NSW BKN018